sensor_id;sensor_type;location;lat;lon;timestamp;P1;durP1;ratioP1;P2;durP2;ratioP2
42338;SDS011;27993;45.392;10.918;2024-02-26T00:02:14;11.77;;;4.20;;
42338;SDS011;27993;45.392;10.918;2024-02-26T00:04:45;13.20;;;4.37;;
42338;SDS011;27993;45.392;10.918;2024-02-26T00:07:16;7.70;;;3.80;;
42338;SDS011;27993;45.392;10.918;2024-02-26T00:09:46;8.83;;;3.80;;
42338;SDS011;27993;45.392;10.918;2024-02-26T00:12:17;7.40;;;3.20;;
42338;SDS011;27993;45.392;10.918;2024-02-26T00:14:47;10.67;;;5.07;;
42338;SDS011;27993;45.392;10.918;2024-02-26T00:19:50;9.18;;;3.42;;
42338;SDS011;27993;45.392;10.918;2024-02-26T00:22:20;5.93;;;3.30;;
42338;SDS011;27993;45.392;10.918;2024-02-26T00:24:52;6.05;;;3.37;;
42338;SDS011;27993;45.392;10.918;2024-02-26T00:27:22;11.20;;;4.20;;
42338;SDS011;27993;45.392;10.918;2024-02-26T00:29:53;6.17;;;3.90;;
42338;SDS011;27993;45.392;10.918;2024-02-26T00:32:23;7.43;;;4.27;;
42338;SDS011;27993;45.392;10.918;2024-02-26T00:34:54;7.20;;;4.23;;
42338;SDS011;27993;45.392;10.918;2024-02-26T00:37:25;6.20;;;3.80;;
42338;SDS011;27993;45.392;10.918;2024-02-26T00:39:55;7.83;;;3.73;;
42338;SDS011;27993;45.392;10.918;2024-02-26T00:42:26;5.03;;;3.63;;
42338;SDS011;27993;45.392;10.918;2024-02-26T00:44:59;6.85;;;3.62;;
42338;SDS011;27993;45.392;10.918;2024-02-26T00:47:30;11.33;;;4.13;;
42338;SDS011;27993;45.392;10.918;2024-02-26T00:50:00;6.80;;;4.03;;
42338;SDS011;27993;45.392;10.918;2024-02-26T00:52:31;7.77;;;3.67;;
42338;SDS011;27993;45.392;10.918;2024-02-26T00:55:02;7.13;;;4.30;;
42338;SDS011;27993;45.392;10.918;2024-02-26T00:57:33;7.10;;;4.20;;
42338;SDS011;27993;45.392;10.918;2024-02-26T01:00:04;5.10;;;3.50;;
42338;SDS011;27993;45.392;10.918;2024-02-26T01:02:35;4.57;;;3.03;;
42338;SDS011;27993;45.392;10.918;2024-02-26T01:05:06;5.43;;;3.73;;
42338;SDS011;27993;45.392;10.918;2024-02-26T01:07:37;5.50;;;3.77;;
42338;SDS011;27993;45.392;10.918;2024-02-26T01:10:08;8.00;;;3.97;;
42338;SDS011;27993;45.392;10.918;2024-02-26T01:12:38;7.10;;;4.27;;
42338;SDS011;27993;45.392;10.918;2024-02-26T01:15:09;8.17;;;4.23;;
42338;SDS011;27993;45.392;10.918;2024-02-26T01:17:40;6.07;;;3.70;;
42338;SDS011;27993;45.392;10.918;2024-02-26T01:20:10;8.30;;;3.73;;
42338;SDS011;27993;45.392;10.918;2024-02-26T01:22:42;8.43;;;4.13;;
42338;SDS011;27993;45.392;10.918;2024-02-26T01:25:13;8.65;;;4.57;;
42338;SDS011;27993;45.392;10.918;2024-02-26T01:27:44;6.13;;;4.13;;
42338;SDS011;27993;45.392;10.918;2024-02-26T01:30:14;11.73;;;5.37;;
42338;SDS011;27993;45.392;10.918;2024-02-26T01:32:46;8.90;;;4.03;;
42338;SDS011;27993;45.392;10.918;2024-02-26T01:35:18;10.53;;;5.10;;
42338;SDS011;27993;45.392;10.918;2024-02-26T01:37:49;5.93;;;4.07;;
42338;SDS011;27993;45.392;10.918;2024-02-26T01:40:20;7.40;;;5.40;;
42338;SDS011;27993;45.392;10.918;2024-02-26T01:42:52;7.77;;;4.43;;
42338;SDS011;27993;45.392;10.918;2024-02-26T01:45:25;12.57;;;5.45;;
42338;SDS011;27993;45.392;10.918;2024-02-26T01:47:56;8.90;;;4.70;;
42338;SDS011;27993;45.392;10.918;2024-02-26T01:50:27;6.03;;;4.10;;
42338;SDS011;27993;45.392;10.918;2024-02-26T01:52:58;8.27;;;3.85;;
42338;SDS011;27993;45.392;10.918;2024-02-26T01:55:29;14.57;;;5.33;;
42338;SDS011;27993;45.392;10.918;2024-02-26T01:57:59;10.83;;;6.83;;
42338;SDS011;27993;45.392;10.918;2024-02-26T02:00:30;7.20;;;4.40;;
42338;SDS011;27993;45.392;10.918;2024-02-26T02:03:02;7.27;;;4.57;;
42338;SDS011;27993;45.392;10.918;2024-02-26T02:08:04;9.05;;;5.22;;
42338;SDS011;27993;45.392;10.918;2024-02-26T02:10:36;8.75;;;4.57;;
42338;SDS011;27993;45.392;10.918;2024-02-26T02:13:08;8.75;;;4.82;;
42338;SDS011;27993;45.392;10.918;2024-02-26T02:15:39;9.23;;;4.73;;
42338;SDS011;27993;45.392;10.918;2024-02-26T02:18:09;7.83;;;4.63;;
42338;SDS011;27993;45.392;10.918;2024-02-26T02:20:40;9.20;;;5.10;;
42338;SDS011;27993;45.392;10.918;2024-02-26T02:23:11;6.97;;;4.70;;
42338;SDS011;27993;45.392;10.918;2024-02-26T02:25:41;8.57;;;5.30;;
42338;SDS011;27993;45.392;10.918;2024-02-26T02:28:12;9.00;;;5.47;;
42338;SDS011;27993;45.392;10.918;2024-02-26T02:30:42;8.07;;;4.97;;
42338;SDS011;27993;45.392;10.918;2024-02-26T02:33:13;11.40;;;4.90;;
42338;SDS011;27993;45.392;10.918;2024-02-26T02:38:16;6.07;;;3.78;;
42338;SDS011;27993;45.392;10.918;2024-02-26T02:40:47;8.37;;;4.30;;
42338;SDS011;27993;45.392;10.918;2024-02-26T02:43:17;12.73;;;4.77;;
42338;SDS011;27993;45.392;10.918;2024-02-26T02:45:48;10.03;;;4.33;;
42338;SDS011;27993;45.392;10.918;2024-02-26T02:48:19;6.23;;;3.90;;
42338;SDS011;27993;45.392;10.918;2024-02-26T02:50:49;13.70;;;5.10;;
42338;SDS011;27993;45.392;10.918;2024-02-26T02:53:20;6.13;;;4.57;;
42338;SDS011;27993;45.392;10.918;2024-02-26T02:55:50;6.57;;;4.77;;
42338;SDS011;27993;45.392;10.918;2024-02-26T02:58:21;6.10;;;3.80;;
42338;SDS011;27993;45.392;10.918;2024-02-26T03:00:52;8.00;;;3.63;;
42338;SDS011;27993;45.392;10.918;2024-02-26T03:03:25;6.97;;;3.75;;
42338;SDS011;27993;45.392;10.918;2024-02-26T03:05:58;26.10;;;4.82;;
42338;SDS011;27993;45.392;10.918;2024-02-26T03:08:29;11.97;;;3.87;;
42338;SDS011;27993;45.392;10.918;2024-02-26T03:10:59;5.73;;;3.90;;
42338;SDS011;27993;45.392;10.918;2024-02-26T03:13:30;6.73;;;3.60;;
42338;SDS011;27993;45.392;10.918;2024-02-26T03:16:04;7.00;;;4.10;;
42338;SDS011;27993;45.392;10.918;2024-02-26T03:18:35;6.37;;;3.80;;
42338;SDS011;27993;45.392;10.918;2024-02-26T03:21:08;7.65;;;3.33;;
42338;SDS011;27993;45.392;10.918;2024-02-26T03:23:39;6.03;;;3.60;;
42338;SDS011;27993;45.392;10.918;2024-02-26T03:26:09;3.97;;;2.43;;
42338;SDS011;27993;45.392;10.918;2024-02-26T03:28:43;5.25;;;2.95;;
42338;SDS011;27993;45.392;10.918;2024-02-26T03:31:14;7.50;;;4.13;;
42338;SDS011;27993;45.392;10.918;2024-02-26T03:33:45;6.10;;;3.17;;
42338;SDS011;27993;45.392;10.918;2024-02-26T03:36:15;5.10;;;2.97;;
42338;SDS011;27993;45.392;10.918;2024-02-26T03:38:46;6.67;;;3.83;;
42338;SDS011;27993;45.392;10.918;2024-02-26T03:41:17;7.47;;;3.53;;
42338;SDS011;27993;45.392;10.918;2024-02-26T03:43:47;9.90;;;3.87;;
42338;SDS011;27993;45.392;10.918;2024-02-26T03:46:18;5.07;;;3.00;;
42338;SDS011;27993;45.392;10.918;2024-02-26T03:48:49;8.63;;;3.17;;
42338;SDS011;27993;45.392;10.918;2024-02-26T03:51:19;6.50;;;3.87;;
42338;SDS011;27993;45.392;10.918;2024-02-26T03:53:50;6.83;;;3.70;;
42338;SDS011;27993;45.392;10.918;2024-02-26T03:56:20;4.77;;;3.23;;
42338;SDS011;27993;45.392;10.918;2024-02-26T03:58:52;10.18;;;4.37;;
42338;SDS011;27993;45.392;10.918;2024-02-26T04:01:23;5.83;;;3.90;;
42338;SDS011;27993;45.392;10.918;2024-02-26T04:03:54;11.50;;;4.50;;
42338;SDS011;27993;45.392;10.918;2024-02-26T04:06:24;4.87;;;3.80;;
42338;SDS011;27993;45.392;10.918;2024-02-26T04:08:55;7.67;;;3.90;;
42338;SDS011;27993;45.392;10.918;2024-02-26T04:11:26;8.80;;;3.87;;
42338;SDS011;27993;45.392;10.918;2024-02-26T04:13:59;5.93;;;3.42;;
42338;SDS011;27993;45.392;10.918;2024-02-26T04:16:30;5.33;;;3.27;;
42338;SDS011;27993;45.392;10.918;2024-02-26T04:19:00;9.33;;;2.87;;
42338;SDS011;27993;45.392;10.918;2024-02-26T04:21:31;8.83;;;4.17;;
42338;SDS011;27993;45.392;10.918;2024-02-26T04:24:02;5.60;;;3.33;;
42338;SDS011;27993;45.392;10.918;2024-02-26T04:26:33;12.90;;;3.83;;
42338;SDS011;27993;45.392;10.918;2024-02-26T04:29:04;6.62;;;3.83;;
42338;SDS011;27993;45.392;10.918;2024-02-26T04:31:35;5.55;;;3.95;;
42338;SDS011;27993;45.392;10.918;2024-02-26T04:34:07;8.23;;;4.82;;
42338;SDS011;27993;45.392;10.918;2024-02-26T04:36:38;4.63;;;3.43;;
42338;SDS011;27993;45.392;10.918;2024-02-26T04:39:09;7.00;;;4.60;;
42338;SDS011;27993;45.392;10.918;2024-02-26T04:41:40;9.63;;;4.40;;
42338;SDS011;27993;45.392;10.918;2024-02-26T04:44:10;6.97;;;4.28;;
42338;SDS011;27993;45.392;10.918;2024-02-26T04:46:41;8.20;;;4.00;;
42338;SDS011;27993;45.392;10.918;2024-02-26T04:49:12;13.10;;;4.77;;
42338;SDS011;27993;45.392;10.918;2024-02-26T04:51:42;7.47;;;4.83;;
42338;SDS011;27993;45.392;10.918;2024-02-26T04:54:13;9.73;;;4.60;;
42338;SDS011;27993;45.392;10.918;2024-02-26T04:56:44;9.00;;;5.22;;
42338;SDS011;27993;45.392;10.918;2024-02-26T04:59:14;7.93;;;4.47;;
42338;SDS011;27993;45.392;10.918;2024-02-26T05:01:45;8.33;;;5.07;;
42338;SDS011;27993;45.392;10.918;2024-02-26T05:04:16;9.23;;;4.53;;
42338;SDS011;27993;45.392;10.918;2024-02-26T05:06:46;11.43;;;5.87;;
42338;SDS011;27993;45.392;10.918;2024-02-26T05:09:17;7.20;;;4.60;;
42338;SDS011;27993;45.392;10.918;2024-02-26T05:11:48;10.17;;;4.30;;
42338;SDS011;27993;45.392;10.918;2024-02-26T05:14:22;8.85;;;4.18;;
42338;SDS011;27993;45.392;10.918;2024-02-26T05:16:52;9.10;;;5.53;;
42338;SDS011;27993;45.392;10.918;2024-02-26T05:19:23;12.37;;;4.47;;
42338;SDS011;27993;45.392;10.918;2024-02-26T05:21:53;10.90;;;4.97;;
42338;SDS011;27993;45.392;10.918;2024-02-26T05:24:24;6.37;;;3.93;;
42338;SDS011;27993;45.392;10.918;2024-02-26T05:26:55;6.53;;;3.90;;
42338;SDS011;27993;45.392;10.918;2024-02-26T05:29:25;6.57;;;3.87;;
42338;SDS011;27993;45.392;10.918;2024-02-26T05:31:56;5.27;;;3.70;;
42338;SDS011;27993;45.392;10.918;2024-02-26T05:34:26;8.47;;;4.73;;
42338;SDS011;27993;45.392;10.918;2024-02-26T05:36:57;8.07;;;4.40;;
42338;SDS011;27993;45.392;10.918;2024-02-26T05:39:28;9.07;;;4.77;;
42338;SDS011;27993;45.392;10.918;2024-02-26T05:41:58;8.33;;;4.07;;
42338;SDS011;27993;45.392;10.918;2024-02-26T05:44:29;8.40;;;3.73;;
42338;SDS011;27993;45.392;10.918;2024-02-26T05:46:59;5.20;;;4.10;;
42338;SDS011;27993;45.392;10.918;2024-02-26T05:49:30;8.97;;;4.70;;
42338;SDS011;27993;45.392;10.918;2024-02-26T05:54:32;10.27;;;4.47;;
42338;SDS011;27993;45.392;10.918;2024-02-26T05:57:03;8.23;;;4.70;;
42338;SDS011;27993;45.392;10.918;2024-02-26T05:59:34;13.13;;;6.57;;
42338;SDS011;27993;45.392;10.918;2024-02-26T06:02:04;6.90;;;4.60;;
42338;SDS011;27993;45.392;10.918;2024-02-26T06:04:35;12.57;;;4.93;;
42338;SDS011;27993;45.392;10.918;2024-02-26T06:07:08;23.35;;;10.18;;
42338;SDS011;27993;45.392;10.918;2024-02-26T06:09:39;23.27;;;9.23;;
42338;SDS011;27993;45.392;10.918;2024-02-26T06:12:10;14.60;;;9.03;;
42338;SDS011;27993;45.392;10.918;2024-02-26T06:14:41;10.40;;;5.77;;
42338;SDS011;27993;45.392;10.918;2024-02-26T06:19:43;13.75;;;5.12;;
42338;SDS011;27993;45.392;10.918;2024-02-26T06:22:13;16.83;;;7.50;;
42338;SDS011;27993;45.392;10.918;2024-02-26T06:24:44;14.53;;;6.80;;
42338;SDS011;27993;45.392;10.918;2024-02-26T06:27:14;13.30;;;6.33;;
42338;SDS011;27993;45.392;10.918;2024-02-26T06:29:45;20.60;;;5.43;;
42338;SDS011;27993;45.392;10.918;2024-02-26T06:32:16;11.97;;;5.53;;
42338;SDS011;27993;45.392;10.918;2024-02-26T06:34:46;11.33;;;6.63;;
42338;SDS011;27993;45.392;10.918;2024-02-26T06:37:17;12.10;;;5.93;;
42338;SDS011;27993;45.392;10.918;2024-02-26T06:39:48;12.67;;;7.47;;
42338;SDS011;27993;45.392;10.918;2024-02-26T06:42:18;12.80;;;6.73;;
42338;SDS011;27993;45.392;10.918;2024-02-26T06:44:49;14.27;;;7.30;;
42338;SDS011;27993;45.392;10.918;2024-02-26T06:47:19;16.67;;;6.50;;
42338;SDS011;27993;45.392;10.918;2024-02-26T06:49:50;18.57;;;6.70;;
42338;SDS011;27993;45.392;10.918;2024-02-26T06:52:21;13.97;;;6.43;;
42338;SDS011;27993;45.392;10.918;2024-02-26T06:54:51;10.07;;;6.70;;
42338;SDS011;27993;45.392;10.918;2024-02-26T06:57:25;13.32;;;7.43;;
42338;SDS011;27993;45.392;10.918;2024-02-26T06:59:56;30.37;;;7.10;;
42338;SDS011;27993;45.392;10.918;2024-02-26T07:02:29;13.00;;;7.05;;
42338;SDS011;27993;45.392;10.918;2024-02-26T07:05:02;17.73;;;6.28;;
42338;SDS011;27993;45.392;10.918;2024-02-26T07:07:33;15.87;;;7.07;;
42338;SDS011;27993;45.392;10.918;2024-02-26T07:10:04;15.47;;;7.40;;
42338;SDS011;27993;45.392;10.918;2024-02-26T07:12:35;13.43;;;7.53;;
42338;SDS011;27993;45.392;10.918;2024-02-26T07:15:06;11.37;;;6.67;;
42338;SDS011;27993;45.392;10.918;2024-02-26T07:17:40;20.02;;;7.37;;
42338;SDS011;27993;45.392;10.918;2024-02-26T07:20:17;10.75;;;5.97;;
42338;SDS011;27993;45.392;10.918;2024-02-26T07:22:48;17.50;;;7.35;;
42338;SDS011;27993;45.392;10.918;2024-02-26T07:25:19;11.32;;;7.37;;
42338;SDS011;27993;45.392;10.918;2024-02-26T07:27:54;8.82;;;6.15;;
42338;SDS011;27993;45.392;10.918;2024-02-26T07:30:24;14.53;;;6.97;;
42338;SDS011;27993;45.392;10.918;2024-02-26T07:32:55;11.17;;;5.83;;
42338;SDS011;27993;45.392;10.918;2024-02-26T07:35:26;15.90;;;7.15;;
42338;SDS011;27993;45.392;10.918;2024-02-26T07:37:58;9.43;;;5.90;;
42338;SDS011;27993;45.392;10.918;2024-02-26T07:40:28;10.93;;;7.93;;
42338;SDS011;27993;45.392;10.918;2024-02-26T07:42:59;13.93;;;5.93;;
42338;SDS011;27993;45.392;10.918;2024-02-26T07:45:30;9.30;;;6.03;;
42338;SDS011;27993;45.392;10.918;2024-02-26T07:48:00;13.27;;;6.27;;
42338;SDS011;27993;45.392;10.918;2024-02-26T07:50:31;12.20;;;7.23;;
42338;SDS011;27993;45.392;10.918;2024-02-26T07:53:02;10.83;;;6.47;;
42338;SDS011;27993;45.392;10.918;2024-02-26T07:55:32;14.87;;;7.17;;
42338;SDS011;27993;45.392;10.918;2024-02-26T07:58:03;10.53;;;6.50;;
42338;SDS011;27993;45.392;10.918;2024-02-26T08:00:34;17.43;;;7.83;;
42338;SDS011;27993;45.392;10.918;2024-02-26T08:03:04;12.90;;;6.90;;
42338;SDS011;27993;45.392;10.918;2024-02-26T08:05:35;11.23;;;7.47;;
42338;SDS011;27993;45.392;10.918;2024-02-26T08:08:09;15.00;;;6.47;;
42338;SDS011;27993;45.392;10.918;2024-02-26T08:10:40;12.43;;;6.83;;
42338;SDS011;27993;45.392;10.918;2024-02-26T08:13:11;10.77;;;6.73;;
42338;SDS011;27993;45.392;10.918;2024-02-26T08:15:41;12.03;;;6.00;;
42338;SDS011;27993;45.392;10.918;2024-02-26T08:18:12;9.67;;;6.13;;
42338;SDS011;27993;45.392;10.918;2024-02-26T08:20:43;13.13;;;5.87;;
42338;SDS011;27993;45.392;10.918;2024-02-26T08:23:13;12.33;;;7.00;;
42338;SDS011;27993;45.392;10.918;2024-02-26T08:25:47;15.20;;;5.53;;
42338;SDS011;27993;45.392;10.918;2024-02-26T08:28:17;14.02;;;6.12;;
42338;SDS011;27993;45.392;10.918;2024-02-26T08:30:48;12.10;;;5.77;;
42338;SDS011;27993;45.392;10.918;2024-02-26T08:33:19;24.17;;;6.27;;
42338;SDS011;27993;45.392;10.918;2024-02-26T08:35:49;13.60;;;5.97;;
42338;SDS011;27993;45.392;10.918;2024-02-26T08:38:20;10.33;;;5.83;;
42338;SDS011;27993;45.392;10.918;2024-02-26T08:40:51;20.33;;;8.83;;
42338;SDS011;27993;45.392;10.918;2024-02-26T08:43:21;12.57;;;4.78;;
42338;SDS011;27993;45.392;10.918;2024-02-26T08:45:56;6.85;;;4.18;;
42338;SDS011;27993;45.392;10.918;2024-02-26T08:48:29;6.68;;;3.80;;
42338;SDS011;27993;45.392;10.918;2024-02-26T08:51:06;5.30;;;3.07;;
42338;SDS011;27993;45.392;10.918;2024-02-26T08:53:37;15.95;;;3.62;;
42338;SDS011;27993;45.392;10.918;2024-02-26T08:56:08;7.00;;;2.62;;
42338;SDS011;27993;45.392;10.918;2024-02-26T08:58:39;6.87;;;2.67;;
42338;SDS011;27993;45.392;10.918;2024-02-26T09:01:09;5.47;;;2.10;;
42338;SDS011;27993;45.392;10.918;2024-02-26T09:03:40;4.20;;;2.07;;
42338;SDS011;27993;45.392;10.918;2024-02-26T09:06:11;4.67;;;2.80;;
42338;SDS011;27993;45.392;10.918;2024-02-26T09:08:44;6.65;;;2.40;;
42338;SDS011;27993;45.392;10.918;2024-02-26T09:11:15;7.33;;;3.07;;
42338;SDS011;27993;45.392;10.918;2024-02-26T09:13:46;11.63;;;2.90;;
42338;SDS011;27993;45.392;10.918;2024-02-26T09:16:17;10.67;;;2.77;;
42338;SDS011;27993;45.392;10.918;2024-02-26T09:18:47;5.17;;;3.03;;
42338;SDS011;27993;45.392;10.918;2024-02-26T09:21:18;2.63;;;1.70;;
42338;SDS011;27993;45.392;10.918;2024-02-26T09:23:53;8.48;;;3.87;;
42338;SDS011;27993;45.392;10.918;2024-02-26T09:26:23;3.27;;;2.50;;
42338;SDS011;27993;45.392;10.918;2024-02-26T09:28:54;4.10;;;2.60;;
42338;SDS011;27993;45.392;10.918;2024-02-26T09:31:24;5.40;;;4.07;;
42338;SDS011;27993;45.392;10.918;2024-02-26T09:33:55;15.07;;;4.90;;
42338;SDS011;27993;45.392;10.918;2024-02-26T09:36:26;15.10;;;5.63;;
42338;SDS011;27993;45.392;10.918;2024-02-26T09:38:56;9.77;;;5.30;;
42338;SDS011;27993;45.392;10.918;2024-02-26T09:41:27;13.37;;;5.93;;
42338;SDS011;27993;45.392;10.918;2024-02-26T09:44:05;10.63;;;6.18;;
42338;SDS011;27993;45.392;10.918;2024-02-26T09:46:35;8.13;;;5.67;;
42338;SDS011;27993;45.392;10.918;2024-02-26T09:49:07;8.25;;;5.05;;
42338;SDS011;27993;45.392;10.918;2024-02-26T09:51:38;10.15;;;5.43;;
42338;SDS011;27993;45.392;10.918;2024-02-26T09:54:10;10.60;;;5.93;;
42338;SDS011;27993;45.392;10.918;2024-02-26T09:56:42;13.25;;;6.25;;
42338;SDS011;27993;45.392;10.918;2024-02-26T09:59:16;11.50;;;4.95;;
42338;SDS011;27993;45.392;10.918;2024-02-26T10:01:48;10.75;;;5.95;;
42338;SDS011;27993;45.392;10.918;2024-02-26T10:04:19;9.45;;;5.55;;
42338;SDS011;27993;45.392;10.918;2024-02-26T10:06:51;10.68;;;6.55;;
42338;SDS011;27993;45.392;10.918;2024-02-26T10:09:22;13.23;;;6.40;;
42338;SDS011;27993;45.392;10.918;2024-02-26T10:11:52;15.50;;;5.37;;
42338;SDS011;27993;45.392;10.918;2024-02-26T10:14:23;7.53;;;4.77;;
42338;SDS011;27993;45.392;10.918;2024-02-26T10:16:54;10.90;;;6.07;;
42338;SDS011;27993;45.392;10.918;2024-02-26T10:19:25;17.47;;;5.63;;
42338;SDS011;27993;45.392;10.918;2024-02-26T10:21:57;13.65;;;5.90;;
42338;SDS011;27993;45.392;10.918;2024-02-26T10:24:29;17.95;;;6.18;;
42338;SDS011;27993;45.392;10.918;2024-02-26T10:27:00;47.72;;;21.92;;
42338;SDS011;27993;45.392;10.918;2024-02-26T10:29:32;22.58;;;12.18;;
42338;SDS011;27993;45.392;10.918;2024-02-26T10:32:03;9.00;;;4.40;;
42338;SDS011;27993;45.392;10.918;2024-02-26T10:34:34;4.72;;;2.87;;
42338;SDS011;27993;45.392;10.918;2024-02-26T10:37:07;9.70;;;4.80;;
42338;SDS011;27993;45.392;10.918;2024-02-26T10:39:39;11.77;;;5.25;;
42338;SDS011;27993;45.392;10.918;2024-02-26T10:42:17;12.82;;;5.00;;
42338;SDS011;27993;45.392;10.918;2024-02-26T10:44:49;8.57;;;5.12;;
42338;SDS011;27993;45.392;10.918;2024-02-26T10:47:20;8.23;;;5.30;;
42338;SDS011;27993;45.392;10.918;2024-02-26T10:49:51;9.85;;;6.07;;
42338;SDS011;27993;45.392;10.918;2024-02-26T10:52:22;7.63;;;4.53;;
42338;SDS011;27993;45.392;10.918;2024-02-26T10:54:56;8.98;;;4.43;;
42338;SDS011;27993;45.392;10.918;2024-02-26T10:57:33;6.60;;;3.75;;
42338;SDS011;27993;45.392;10.918;2024-02-26T11:00:07;6.62;;;5.12;;
42338;SDS011;27993;45.392;10.918;2024-02-26T11:02:42;5.03;;;3.03;;
42338;SDS011;27993;45.392;10.918;2024-02-26T11:05:14;10.85;;;4.00;;
42338;SDS011;27993;45.392;10.918;2024-02-26T11:07:47;6.47;;;3.70;;
42338;SDS011;27993;45.392;10.918;2024-02-26T11:10:20;8.15;;;4.45;;
42338;SDS011;27993;45.392;10.918;2024-02-26T11:12:51;5.72;;;3.60;;
42338;SDS011;27993;45.392;10.918;2024-02-26T11:15:24;8.63;;;5.18;;
42338;SDS011;27993;45.392;10.918;2024-02-26T11:17:55;8.23;;;3.73;;
42338;SDS011;27993;45.392;10.918;2024-02-26T11:20:28;6.28;;;4.03;;
42338;SDS011;27993;45.392;10.918;2024-02-26T11:22:59;7.28;;;2.67;;
42338;SDS011;27993;45.392;10.918;2024-02-26T11:25:30;9.10;;;4.27;;
42338;SDS011;27993;45.392;10.918;2024-02-26T11:28:01;4.43;;;2.87;;
42338;SDS011;27993;45.392;10.918;2024-02-26T11:30:36;6.78;;;3.65;;
42338;SDS011;27993;45.392;10.918;2024-02-26T11:33:11;5.82;;;4.12;;
42338;SDS011;27993;45.392;10.918;2024-02-26T11:35:44;5.37;;;3.05;;
42338;SDS011;27993;45.392;10.918;2024-02-26T11:38:23;8.38;;;3.17;;
42338;SDS011;27993;45.392;10.918;2024-02-26T11:40:56;4.97;;;3.55;;
42338;SDS011;27993;45.392;10.918;2024-02-26T11:46:29;6.93;;;3.30;;
42338;SDS011;27993;45.392;10.918;2024-02-26T11:49:02;4.57;;;3.03;;
42338;SDS011;27993;45.392;10.918;2024-02-26T11:51:54;7.68;;;3.67;;
42338;SDS011;27993;45.392;10.918;2024-02-26T11:57:30;13.98;;;3.60;;
42338;SDS011;27993;45.392;10.918;2024-02-26T12:05:14;9.37;;;3.57;;
42338;SDS011;27993;45.392;10.918;2024-02-26T12:07:47;6.15;;;2.95;;
42338;SDS011;27993;45.392;10.918;2024-02-26T12:10:32;9.48;;;3.55;;
42338;SDS011;27993;45.392;10.918;2024-02-26T12:13:15;6.53;;;3.20;;
42338;SDS011;27993;45.392;10.918;2024-02-26T12:15:57;6.03;;;2.85;;
42338;SDS011;27993;45.392;10.918;2024-02-26T12:18:28;9.00;;;4.15;;
42338;SDS011;27993;45.392;10.918;2024-02-26T12:21:00;4.93;;;2.55;;
42338;SDS011;27993;45.392;10.918;2024-02-26T12:23:32;5.22;;;2.80;;
42338;SDS011;27993;45.392;10.918;2024-02-26T12:26:03;6.07;;;3.07;;
42338;SDS011;27993;45.392;10.918;2024-02-26T12:28:34;4.87;;;3.20;;
42338;SDS011;27993;45.392;10.918;2024-02-26T12:31:04;4.63;;;2.80;;
42338;SDS011;27993;45.392;10.918;2024-02-26T12:33:35;4.17;;;3.00;;
42338;SDS011;27993;45.392;10.918;2024-02-26T12:36:06;5.93;;;4.13;;
42338;SDS011;27993;45.392;10.918;2024-02-26T12:38:37;7.10;;;3.87;;
42338;SDS011;27993;45.392;10.918;2024-02-26T12:41:08;14.17;;;3.97;;
42338;SDS011;27993;45.392;10.918;2024-02-26T12:43:39;6.47;;;4.13;;
42338;SDS011;27993;45.392;10.918;2024-02-26T12:46:10;7.87;;;4.97;;
42338;SDS011;27993;45.392;10.918;2024-02-26T12:48:42;6.90;;;4.65;;
42338;SDS011;27993;45.392;10.918;2024-02-26T12:51:15;7.25;;;4.07;;
42338;SDS011;27993;45.392;10.918;2024-02-26T12:56:20;13.07;;;5.32;;
42338;SDS011;27993;45.392;10.918;2024-02-26T13:01:23;12.40;;;3.90;;
42338;SDS011;27993;45.392;10.918;2024-02-26T13:06:25;12.52;;;6.97;;
42338;SDS011;27993;45.392;10.918;2024-02-26T13:08:56;15.63;;;5.10;;
42338;SDS011;27993;45.392;10.918;2024-02-26T13:11:31;8.13;;;4.87;;
42338;SDS011;27993;45.392;10.918;2024-02-26T13:14:03;11.02;;;5.22;;
42338;SDS011;27993;45.392;10.918;2024-02-26T13:16:33;8.80;;;4.07;;
42338;SDS011;27993;45.392;10.918;2024-02-26T13:19:10;7.10;;;4.17;;
42338;SDS011;27993;45.392;10.918;2024-02-26T13:21:41;8.32;;;4.70;;
42338;SDS011;27993;45.392;10.918;2024-02-26T13:24:12;8.43;;;3.87;;
42338;SDS011;27993;45.392;10.918;2024-02-26T13:26:43;6.32;;;4.05;;
42338;SDS011;27993;45.392;10.918;2024-02-26T13:29:20;17.17;;;4.73;;
42338;SDS011;27993;45.392;10.918;2024-02-26T13:31:55;5.25;;;3.35;;
42338;SDS011;27993;45.392;10.918;2024-02-26T13:34:28;4.22;;;3.37;;
42338;SDS011;27993;45.392;10.918;2024-02-26T13:37:00;5.00;;;3.40;;
42338;SDS011;27993;45.392;10.918;2024-02-26T13:39:31;9.60;;;5.33;;
42338;SDS011;27993;45.392;10.918;2024-02-26T13:42:01;10.00;;;4.60;;
42338;SDS011;27993;45.392;10.918;2024-02-26T13:44:32;1.93;;;1.53;;
42338;SDS011;27993;45.392;10.918;2024-02-26T13:47:09;3.00;;;1.62;;
42338;SDS011;27993;45.392;10.918;2024-02-26T13:49:40;15.03;;;1.77;;
42338;SDS011;27993;45.392;10.918;2024-02-26T13:52:10;2.60;;;1.77;;
42338;SDS011;27993;45.392;10.918;2024-02-26T13:54:41;4.97;;;3.70;;
42338;SDS011;27993;45.392;10.918;2024-02-26T13:57:12;5.03;;;2.37;;
42338;SDS011;27993;45.392;10.918;2024-02-26T13:59:42;4.53;;;1.93;;
42338;SDS011;27993;45.392;10.918;2024-02-26T14:02:13;6.03;;;3.20;;
42338;SDS011;27993;45.392;10.918;2024-02-26T14:04:43;9.33;;;3.67;;
42338;SDS011;27993;45.392;10.918;2024-02-26T14:07:14;4.23;;;2.10;;
42338;SDS011;27993;45.392;10.918;2024-02-26T14:09:47;2.12;;;1.85;;
42338;SDS011;27993;45.392;10.918;2024-02-26T14:12:17;6.93;;;2.57;;
42338;SDS011;27993;45.392;10.918;2024-02-26T14:14:51;6.05;;;2.97;;
42338;SDS011;27993;45.392;10.918;2024-02-26T14:17:24;4.22;;;2.95;;
42338;SDS011;27993;45.392;10.918;2024-02-26T14:19:54;3.77;;;2.20;;
42338;SDS011;27993;45.392;10.918;2024-02-26T14:22:25;4.60;;;2.13;;
42338;SDS011;27993;45.392;10.918;2024-02-26T14:25:00;7.12;;;3.70;;
42338;SDS011;27993;45.392;10.918;2024-02-26T14:27:31;5.20;;;3.07;;
42338;SDS011;27993;45.392;10.918;2024-02-26T14:30:01;3.43;;;2.53;;
42338;SDS011;27993;45.392;10.918;2024-02-26T14:32:32;4.78;;;2.95;;
42338;SDS011;27993;45.392;10.918;2024-02-26T14:35:06;5.95;;;2.70;;
42338;SDS011;27993;45.392;10.918;2024-02-26T14:37:38;3.12;;;2.30;;
42338;SDS011;27993;45.392;10.918;2024-02-26T14:40:09;4.90;;;2.17;;
42338;SDS011;27993;45.392;10.918;2024-02-26T14:42:40;2.58;;;1.80;;
42338;SDS011;27993;45.392;10.918;2024-02-26T14:45:11;9.40;;;2.50;;
42338;SDS011;27993;45.392;10.918;2024-02-26T14:47:42;4.60;;;2.23;;
42338;SDS011;27993;45.392;10.918;2024-02-26T14:50:13;3.20;;;1.73;;
42338;SDS011;27993;45.392;10.918;2024-02-26T14:52:43;3.20;;;1.80;;
42338;SDS011;27993;45.392;10.918;2024-02-26T14:55:14;4.20;;;2.60;;
42338;SDS011;27993;45.392;10.918;2024-02-26T14:57:44;5.20;;;2.30;;
42338;SDS011;27993;45.392;10.918;2024-02-26T15:00:15;3.87;;;1.77;;
42338;SDS011;27993;45.392;10.918;2024-02-26T15:02:46;7.90;;;2.60;;
42338;SDS011;27993;45.392;10.918;2024-02-26T15:05:16;3.30;;;2.23;;
42338;SDS011;27993;45.392;10.918;2024-02-26T15:07:47;7.23;;;2.70;;
42338;SDS011;27993;45.392;10.918;2024-02-26T15:10:19;3.92;;;2.10;;
42338;SDS011;27993;45.392;10.918;2024-02-26T15:12:49;4.23;;;2.27;;
42338;SDS011;27993;45.392;10.918;2024-02-26T15:15:21;6.28;;;2.47;;
42338;SDS011;27993;45.392;10.918;2024-02-26T15:17:52;2.60;;;1.83;;
42338;SDS011;27993;45.392;10.918;2024-02-26T15:20:22;6.17;;;2.90;;
42338;SDS011;27993;45.392;10.918;2024-02-26T15:22:53;3.67;;;1.93;;
42338;SDS011;27993;45.392;10.918;2024-02-26T15:25:23;5.43;;;2.83;;
42338;SDS011;27993;45.392;10.918;2024-02-26T15:27:54;2.40;;;1.57;;